Time;durP1;ratioP1;P1;durP2;ratioP2;P2;SDS_P1;SDS_P2;PMS_P1;PMS_P2;Temp;Humidity;BMP_temperature;BMP_pressure;BME280_temperature;BME280_humidity;BME280_pressure;Samples;Min_cycle;Max_cycle;Signal;HPM_P1;HPM_P2
2021/03/16 00:01:12;;;;;;;0.65;0.20;;;;;;;;;;6203023;28;20144;-73
2021/03/16 00:04:14;;;;;;;2.95;1.00;;;;;;;;;;6208661;28;20056;-70
2021/03/16 00:07:17;;;;;;;0.50;0.20;;;;;;;;;;6214814;28;20086;-75
2021/03/16 00:10:18;;;;;;;0.10;0.10;;;;;;;;;;6210623;28;20042;-72
2021/03/16 00:13:19;;;;;;;0.10;0.10;;;;;;;;;;6216826;28;20129;-70
2021/03/16 00:16:23;;;;;;;1.90;0.50;;;;;;;;;;6215211;28;20045;-73
2021/03/16 00:19:24;;;;;;;0.37;0.10;;;;;;;;;;6210352;28;20060;-70
2021/03/16 00:22:25;;;;;;;1.90;0.10;;;;;;;;;;6208380;28;22035;-72
2021/03/16 00:25:26;;;;;;;0.20;0.13;;;;;;;;;;6211205;28;20142;-72
2021/03/16 00:28:27;;;;;;;0.30;0.20;;;;;;;;;;6214536;28;20143;-73
2021/03/16 00:31:29;;;;;;;0.32;0.10;;;;;;;;;;6209340;28;20832;-71
2021/03/16 00:34:30;;;;;;;3.10;0.15;;;;;;;;;;6204318;28;20121;-71
2021/03/16 00:37:31;;;;;;;6.60;3.00;;;;;;;;;;6194244;28;20077;-71
2021/03/16 00:40:32;;;;;;;15.18;8.23;;;;;;;;;;6210555;28;20053;-70
2021/03/16 00:43:33;;;;;;;45.65;18.42;;;;;;;;;;6195883;28;20056;-71
2021/03/16 00:46:35;;;;;;;12.30;6.20;;;;;;;;;;6201866;28;20501;-76
2021/03/16 00:49:37;;;;;;;9.48;5.35;;;;;;;;;;6185765;28;20174;-73
2021/03/16 00:52:38;;;;;;;2.42;0.80;;;;;;;;;;6190208;28;20091;-70
2021/03/16 00:55:39;;;;;;;19.83;8.32;;;;;;;;;;6194206;28;20082;-71
2021/03/16 00:58:40;;;;;;;0.82;0.50;;;;;;;;;;6208306;28;20082;-72
2021/03/16 01:01:42;;;;;;;0.10;0.10;;;;;;;;;;6205899;28;20125;-76
2021/03/16 01:04:43;;;;;;;0.20;0.10;;;;;;;;;;6182192;28;20547;-72
2021/03/16 01:07:44;;;;;;;1.95;0.20;;;;;;;;;;6189176;28;20501;-72
2021/03/16 01:10:47;;;;;;;0.55;0.13;;;;;;;;;;6192804;28;20481;-71
2021/03/16 01:13:48;;;;;;;0.20;0.10;;;;;;;;;;6184552;28;20100;-71
2021/03/16 01:16:50;;;;;;;1.30;0.30;;;;;;;;;;6193236;28;20570;-70
2021/03/16 01:19:51;;;;;;;13.45;0.50;;;;;;;;;;6195165;28;20395;-72
2021/03/16 01:22:52;;;;;;;0.52;0.28;;;;;;;;;;6198442;28;20441;-72
2021/03/16 01:25:53;;;;;;;2.10;0.30;;;;;;;;;;6213788;28;20045;-71
2021/03/16 01:28:54;;;;;;;1.67;0.20;;;;;;;;;;6176883;28;20066;-71
2021/03/16 01:31:56;;;;;;;1.20;0.22;;;;;;;;;;6190495;28;20066;-70
2021/03/16 01:34:57;;;;;;;1.15;0.20;;;;;;;;;;6195381;28;20128;-71
2021/03/16 01:37:58;;;;;;;1.13;0.30;;;;;;;;;;6213155;28;20088;-72
2021/03/16 01:41:00;;;;;;;0.50;0.40;;;;;;;;;;6218834;28;20129;-71
2021/03/16 01:44:01;;;;;;;0.70;0.30;;;;;;;;;;6215629;28;20489;-71
2021/03/16 01:47:03;;;;;;;0.68;0.22;;;;;;;;;;6216020;28;20707;-72
2021/03/16 01:50:09;;;;;;;0.22;0.10;;;;;;;;;;6213122;28;20132;-78
2021/03/16 01:53:10;;;;;;;0.55;0.30;;;;;;;;;;6207780;28;20064;-71
2021/03/16 01:56:11;;;;;;;1.67;0.20;;;;;;;;;;6192870;28;20074;-72
2021/03/16 01:59:16;;;;;;;1.00;0.15;;;;;;;;;;6203554;28;20089;-76
2021/03/16 02:02:18;;;;;;;1.13;0.20;;;;;;;;;;6204038;28;20054;-71
2021/03/16 02:05:19;;;;;;;0.75;0.17;;;;;;;;;;6210942;28;20411;-72
2021/03/16 02:08:24;;;;;;;1.25;0.32;;;;;;;;;;6196535;28;20129;-76
2021/03/16 02:11:31;;;;;;;0.85;0.20;;;;;;;;;;6209510;28;20133;-71
2021/03/16 02:14:34;;;;;;;1.02;0.30;;;;;;;;;;6189577;28;20133;-70
2021/03/16 02:17:37;;;;;;;0.88;0.40;;;;;;;;;;6199984;28;20464;-72
2021/03/16 02:21:03;;;;;;;1.35;0.17;;;;;;;;;;6203621;28;20136;-75
2021/03/16 02:24:17;;;;;;;0.50;0.20;;;;;;;;;;6193881;28;20701;-71
2021/03/16 02:27:19;;;;;;;1.00;0.30;;;;;;;;;;6214174;28;20411;-71
2021/03/16 02:30:22;;;;;;;1.08;0.45;;;;;;;;;;6204922;28;20046;-73
2021/03/16 02:33:24;;;;;;;0.60;0.30;;;;;;;;;;6186580;28;20053;-71
2021/03/16 02:36:28;;;;;;;0.43;0.30;;;;;;;;;;6185894;28;20055;-73
2021/03/16 02:39:29;;;;;;;0.52;0.30;;;;;;;;;;6185864;28;20059;-76
2021/03/16 02:42:31;;;;;;;0.75;0.38;;;;;;;;;;6190483;28;20135;-71
2021/03/16 02:45:33;;;;;;;0.60;0.30;;;;;;;;;;6211563;28;20061;-71
2021/03/16 02:48:36;;;;;;;0.50;0.10;;;;;;;;;;6201008;28;20129;-72
2021/03/16 02:51:38;;;;;;;0.20;0.10;;;;;;;;;;6196377;28;20177;-71
2021/03/16 02:54:39;;;;;;;0.30;0.28;;;;;;;;;;6192833;28;20042;-71
2021/03/16 02:57:42;;;;;;;0.38;0.22;;;;;;;;;;6203670;28;20492;-71
2021/03/16 03:00:44;;;;;;;0.32;0.20;;;;;;;;;;6192449;28;20121;-70
2021/03/16 03:03:46;;;;;;;0.77;0.30;;;;;;;;;;6195470;28;20236;-71
2021/03/16 03:06:47;;;;;;;5.38;0.40;;;;;;;;;;6208702;28;20141;-72
2021/03/16 03:09:48;;;;;;;1.15;0.40;;;;;;;;;;6220187;28;20203;-70
2021/03/16 03:12:51;;;;;;;1.48;0.50;;;;;;;;;;6194958;28;20078;-72
2021/03/16 03:15:53;;;;;;;1.48;0.80;;;;;;;;;;6206834;28;20125;-71
2021/03/16 03:18:55;;;;;;;1.42;0.57;;;;;;;;;;6213342;28;20046;-72
2021/03/16 03:22:01;;;;;;;0.90;0.55;;;;;;;;;;6214077;28;20141;-71
2021/03/16 03:25:06;;;;;;;0.95;0.50;;;;;;;;;;6210148;28;20516;-74
2021/03/16 03:28:10;;;;;;;0.30;0.20;;;;;;;;;;6208195;28;20470;-73
2021/03/16 03:31:13;;;;;;;0.60;0.30;;;;;;;;;;6209518;28;20537;-71
2021/03/16 03:34:16;;;;;;;1.27;0.30;;;;;;;;;;6215464;28;20128;-74
2021/03/16 03:37:17;;;;;;;1.42;0.32;;;;;;;;;;6205570;28;20064;-70
2021/03/16 03:40:19;;;;;;;0.93;0.40;;;;;;;;;;6212519;28;20066;-71
2021/03/16 03:43:22;;;;;;;0.80;0.35;;;;;;;;;;6202858;28;20042;-71
2021/03/16 03:46:24;;;;;;;0.40;0.20;;;;;;;;;;6207919;28;20552;-70
2021/03/16 03:49:26;;;;;;;0.60;0.30;;;;;;;;;;6210367;28;20157;-70
2021/03/16 03:52:28;;;;;;;0.30;0.10;;;;;;;;;;6207276;28;20477;-73
2021/03/16 03:55:29;;;;;;;0.68;0.20;;;;;;;;;;6211466;28;20391;-72
2021/03/16 03:58:31;;;;;;;0.20;0.10;;;;;;;;;;6212760;28;20164;-71
2021/03/16 04:01:33;;;;;;;1.80;0.10;;;;;;;;;;6209863;28;20173;-71
2021/03/16 04:04:34;;;;;;;1.67;0.10;;;;;;;;;;6211921;28;20050;-74
2021/03/16 04:07:36;;;;;;;0.55;0.17;;;;;;;;;;6207048;28;20248;-69
2021/03/16 04:10:38;;;;;;;0.40;0.10;;;;;;;;;;6206064;28;20125;-70
2021/03/16 04:13:39;;;;;;;0.90;0.30;;;;;;;;;;6208918;28;20520;-71
2021/03/16 04:16:42;;;;;;;0.10;0.10;;;;;;;;;;6208871;28;20134;-69
2021/03/16 04:19:43;;;;;;;0.35;0.10;;;;;;;;;;6217447;28;20129;-70
2021/03/16 04:22:44;;;;;;;0.57;0.15;;;;;;;;;;6212873;28;20137;-71
2021/03/16 04:25:45;;;;;;;0.50;0.20;;;;;;;;;;6210686;28;20053;-70
2021/03/16 04:28:46;;;;;;;0.95;0.20;;;;;;;;;;6201644;28;20067;-70
2021/03/16 04:31:48;;;;;;;3.35;0.20;;;;;;;;;;6209485;28;20136;-70
2021/03/16 04:34:49;;;;;;;0.00;0.00;;;;;;;;;;6214245;28;20064;-71
2021/03/16 04:37:50;;;;;;;0.30;0.13;;;;;;;;;;6209387;28;20080;-71
2021/03/16 04:40:51;;;;;;;0.50;0.20;;;;;;;;;;6207834;28;20465;-71
2021/03/16 04:43:52;;;;;;;0.30;0.10;;;;;;;;;;6209510;28;20173;-71
2021/03/16 04:46:54;;;;;;;0.05;0.05;;;;;;;;;;6205915;28;20536;-71
2021/03/16 04:49:55;;;;;;;0.95;0.10;;;;;;;;;;6209304;28;20145;-71
2021/03/16 04:52:56;;;;;;;0.40;0.20;;;;;;;;;;6209518;28;20472;-75
2021/03/16 04:55:57;;;;;;;1.35;0.10;;;;;;;;;;6206296;28;20134;-70
2021/03/16 04:58:59;;;;;;;0.93;0.20;;;;;;;;;;6206524;28;20108;-73
2021/03/16 05:02:01;;;;;;;0.20;0.10;;;;;;;;;;6210966;28;20195;-70
2021/03/16 05:05:02;;;;;;;0.50;0.20;;;;;;;;;;6209534;28;20136;-71
2021/03/16 05:08:03;;;;;;;0.20;0.10;;;;;;;;;;6205388;28;20215;-70
2021/03/16 05:11:04;;;;;;;0.20;0.20;;;;;;;;;;6205768;28;20042;-70
2021/03/16 05:14:05;;;;;;;0.52;0.20;;;;;;;;;;6208400;28;20091;-70
2021/03/16 05:17:07;;;;;;;0.20;0.10;;;;;;;;;;6208379;28;20054;-73
2021/03/16 05:20:10;;;;;;;0.28;0.20;;;;;;;;;;6215145;28;20076;-73
2021/03/16 05:23:11;;;;;;;3.15;0.20;;;;;;;;;;6210630;28;20121;-72
2021/03/16 05:26:12;;;;;;;1.27;0.38;;;;;;;;;;6201230;28;20509;-73
2021/03/16 05:29:13;;;;;;;0.40;0.20;;;;;;;;;;6208514;28;20084;-75
2021/03/16 05:32:15;;;;;;;0.63;0.20;;;;;;;;;;6204318;28;20039;-70
2021/03/16 05:35:16;;;;;;;1.75;0.30;;;;;;;;;;6207864;28;20133;-73
2021/03/16 05:38:17;;;;;;;1.75;0.20;;;;;;;;;;6205975;28;20248;-72
2021/03/16 05:41:19;;;;;;;0.88;0.30;;;;;;;;;;6207148;28;20141;-72
2021/03/16 05:44:21;;;;;;;0.50;0.30;;;;;;;;;;6193354;28;20074;-73
2021/03/16 05:47:23;;;;;;;1.83;0.40;;;;;;;;;;6185261;28;20138;-75
2021/03/16 05:50:25;;;;;;;6.25;0.50;;;;;;;;;;6181370;28;20124;-72
2021/03/16 05:53:26;;;;;;;0.93;0.40;;;;;;;;;;6189436;28;20817;-73
2021/03/16 05:56:28;;;;;;;1.02;0.30;;;;;;;;;;6210794;28;20132;-73
2021/03/16 05:59:29;;;;;;;0.82;0.30;;;;;;;;;;6199532;28;20137;-74
2021/03/16 06:02:31;;;;;;;0.40;0.22;;;;;;;;;;6183646;28;20413;-73
2021/03/16 06:05:32;;;;;;;0.47;0.20;;;;;;;;;;6181493;28;20081;-72
2021/03/16 06:08:33;;;;;;;1.38;0.30;;;;;;;;;;6180179;28;20050;-73
2021/03/16 06:11:34;;;;;;;2.67;0.47;;;;;;;;;;6188948;28;20445;-72
2021/03/16 06:14:36;;;;;;;2.85;0.50;;;;;;;;;;6187470;28;20097;-72
2021/03/16 06:17:43;;;;;;;0.80;0.40;;;;;;;;;;6190974;28;20078;-71
2021/03/16 06:20:44;;;;;;;2.15;0.40;;;;;;;;;;6181443;28;20057;-72
2021/03/16 06:23:53;;;;;;;1.08;0.50;;;;;;;;;;6191842;28;20074;-72
2021/03/16 06:26:54;;;;;;;1.23;0.47;;;;;;;;;;6186149;28;20134;-72
2021/03/16 06:29:55;;;;;;;0.90;0.43;;;;;;;;;;6187631;28;20081;-72
2021/03/16 06:32:57;;;;;;;1.45;0.20;;;;;;;;;;6180797;28;20142;-73
2021/03/16 06:35:59;;;;;;;3.30;0.50;;;;;;;;;;6200216;28;20509;-72
2021/03/16 06:39:00;;;;;;;1.60;0.57;;;;;;;;;;6182155;28;20402;-72
2021/03/16 06:42:01;;;;;;;1.23;0.40;;;;;;;;;;6185499;28;20049;-72
2021/03/16 06:45:05;;;;;;;3.83;0.57;;;;;;;;;;6204705;28;20412;-71
2021/03/16 06:48:14;;;;;;;4.25;0.57;;;;;;;;;;6209988;28;20145;-70
2021/03/16 06:51:15;;;;;;;9.75;0.70;;;;;;;;;;6213168;28;20129;-71
2021/03/16 06:54:18;;;;;;;2.63;0.60;;;;;;;;;;6205908;28;20057;-72
2021/03/16 06:57:23;;;;;;;3.70;0.60;;;;;;;;;;6204142;28;20126;-73
2021/03/16 07:00:25;;;;;;;1.67;0.50;;;;;;;;;;6202339;28;20149;-73
2021/03/16 07:03:28;;;;;;;5.43;0.60;;;;;;;;;;6204771;28;20137;-71
2021/03/16 07:06:29;;;;;;;1.08;0.60;;;;;;;;;;6207224;28;20065;-71
2021/03/16 07:09:31;;;;;;;2.80;0.50;;;;;;;;;;6202753;28;20070;-71
2021/03/16 07:12:34;;;;;;;1.38;0.70;;;;;;;;;;6202614;28;20057;-71
2021/03/16 07:15:38;;;;;;;2.17;0.60;;;;;;;;;;6205021;28;20530;-72
2021/03/16 07:18:41;;;;;;;3.70;0.75;;;;;;;;;;6198857;28;20150;-72
2021/03/16 07:21:51;;;;;;;1.77;0.50;;;;;;;;;;6201516;28;20057;-70
2021/03/16 07:24:52;;;;;;;5.07;0.70;;;;;;;;;;6204398;28;20083;-76
2021/03/16 07:27:53;;;;;;;6.00;0.80;;;;;;;;;;6206008;28;20523;-69
2021/03/16 07:30:54;;;;;;;6.22;0.50;;;;;;;;;;6202504;28;20108;-71
2021/03/16 07:33:56;;;;;;;1.95;0.50;;;;;;;;;;6213894;28;20084;-71
2021/03/16 07:36:58;;;;;;;2.05;0.40;;;;;;;;;;6205988;28;20046;-73
2021/03/16 07:40:03;;;;;;;2.85;0.50;;;;;;;;;;6205813;28;20105;-71
2021/03/16 07:43:08;;;;;;;1.90;0.40;;;;;;;;;;6211440;28;20468;-72
2021/03/16 07:46:12;;;;;;;10.45;1.17;;;;;;;;;;6213567;28;20065;-72
2021/03/16 07:49:15;;;;;;;0.98;0.47;;;;;;;;;;6203730;28;20536;-71
2021/03/16 07:52:18;;;;;;;1.00;0.30;;;;;;;;;;6207851;28;20133;-71
2021/03/16 07:55:26;;;;;;;2.38;0.60;;;;;;;;;;6198899;28;20929;-74
2021/03/16 07:58:27;;;;;;;4.10;0.60;;;;;;;;;;6204335;28;20238;-70
2021/03/16 08:01:28;;;;;;;1.20;0.52;;;;;;;;;;6212471;28;20073;-70
2021/03/16 08:04:37;;;;;;;5.18;1.00;;;;;;;;;;6206603;28;20054;-71
2021/03/16 08:07:38;;;;;;;7.88;0.60;;;;;;;;;;6208787;28;20084;-71
2021/03/16 08:10:39;;;;;;;5.63;0.50;;;;;;;;;;6201648;28;20229;-70
2021/03/16 08:13:40;;;;;;;0.82;0.38;;;;;;;;;;6211358;28;20129;-72
2021/03/16 08:16:42;;;;;;;3.13;0.35;;;;;;;;;;6207009;28;20069;-71
2021/03/16 08:19:44;;;;;;;1.60;0.40;;;;;;;;;;6207538;28;20294;-70
2021/03/16 08:22:45;;;;;;;2.92;0.40;;;;;;;;;;6206668;28;20072;-72
2021/03/16 08:25:47;;;;;;;3.75;0.30;;;;;;;;;;6212782;28;20091;-70
2021/03/16 08:28:49;;;;;;;3.85;0.40;;;;;;;;;;6200570;28;20078;-72
2021/03/16 08:31:51;;;;;;;2.15;0.32;;;;;;;;;;6179518;28;20193;-72
2021/03/16 08:34:54;;;;;;;0.98;0.30;;;;;;;;;;6154341;28;20070;-74
2021/03/16 08:37:55;;;;;;;6.13;0.50;;;;;;;;;;6179656;28;20699;-76
2021/03/16 08:41:05;;;;;;;1.17;0.63;;;;;;;;;;6180379;28;21015;-71
2021/03/16 08:44:06;;;;;;;3.00;1.05;;;;;;;;;;6200683;28;20198;-71
2021/03/16 08:47:09;;;;;;;9.30;0.98;;;;;;;;;;6180306;28;20137;-73
2021/03/16 08:50:12;;;;;;;1.00;0.30;;;;;;;;;;6183296;28;20054;-71
2021/03/16 08:53:15;;;;;;;0.55;0.35;;;;;;;;;;6182084;28;20550;-72
2021/03/16 08:56:20;;;;;;;2.25;0.60;;;;;;;;;;6188637;28;20757;-72
2021/03/16 08:59:22;;;;;;;3.28;0.40;;;;;;;;;;6181070;28;20129;-70
2021/03/16 09:02:24;;;;;;;2.25;0.70;;;;;;;;;;6184308;28;20149;-72
2021/03/16 09:05:26;;;;;;;3.10;0.30;;;;;;;;;;6194543;28;20159;-75
2021/03/16 09:08:28;;;;;;;5.95;0.73;;;;;;;;;;6188188;28;20050;-72
2021/03/16 09:11:30;;;;;;;11.32;1.20;;;;;;;;;;6211609;28;20054;-72
2021/03/16 09:14:31;;;;;;;0.50;0.30;;;;;;;;;;6207064;28;20111;-73
2021/03/16 09:17:33;;;;;;;2.15;0.20;;;;;;;;;;6206008;28;20060;-73
2021/03/16 09:20:36;;;;;;;2.17;0.35;;;;;;;;;;6210631;28;20042;-73
2021/03/16 09:23:37;;;;;;;8.95;0.40;;;;;;;;;;6197983;28;20054;-72
2021/03/16 09:26:38;;;;;;;1.13;0.30;;;;;;;;;;6186869;28;20130;-76
2021/03/16 09:29:40;;;;;;;0.90;0.68;;;;;;;;;;6182071;28;20581;-73
2021/03/16 09:32:44;;;;;;;1.58;0.20;;;;;;;;;;6184951;28;21716;-71
2021/03/16 09:35:54;;;;;;;4.30;0.40;;;;;;;;;;6188269;28;20076;-77
2021/03/16 09:38:56;;;;;;;3.15;0.30;;;;;;;;;;6188998;28;20086;-70
2021/03/16 09:41:59;;;;;;;0.70;0.22;;;;;;;;;;6184502;28;20046;-73
2021/03/16 09:45:03;;;;;;;1.50;0.28;;;;;;;;;;6190468;28;20092;-73
2021/03/16 09:48:04;;;;;;;2.20;0.30;;;;;;;;;;6193825;28;20794;-71
2021/03/16 09:51:11;;;;;;;4.32;0.30;;;;;;;;;;6204611;28;20570;-71
2021/03/16 09:54:12;;;;;;;1.55;0.30;;;;;;;;;;6208490;28;20104;-73
2021/03/16 09:57:14;;;;;;;2.28;0.22;;;;;;;;;;6203372;28;20077;-72
2021/03/16 10:00:18;;;;;;;7.53;0.50;;;;;;;;;;6207581;28;20140;-72
2021/03/16 10:03:20;;;;;;;2.42;0.50;;;;;;;;;;6187162;28;20050;-71
2021/03/16 10:06:31;;;;;;;2.00;0.50;;;;;;;;;;6178035;28;20093;-69
2021/03/16 10:09:39;;;;;;;4.40;0.60;;;;;;;;;;6190656;28;20470;-71
2021/03/16 10:12:53;;;;;;;4.00;0.40;;;;;;;;;;6182513;28;20186;-71
2021/03/16 10:15:55;;;;;;;3.55;0.40;;;;;;;;;;6187921;28;20400;-73
2021/03/16 10:18:56;;;;;;;0.85;0.47;;;;;;;;;;6198300;28;20129;-72
2021/03/16 10:21:59;;;;;;;3.67;0.60;;;;;;;;;;6208211;28;20453;-74
2021/03/16 10:25:01;;;;;;;4.60;0.63;;;;;;;;;;6207894;28;20034;-71
2021/03/16 10:28:04;;;;;;;0.73;0.40;;;;;;;;;;6203312;28;20041;-73
2021/03/16 10:31:10;;;;;;;13.73;0.95;;;;;;;;;;6202511;28;20065;-70
2021/03/16 10:34:11;;;;;;;1.00;0.30;;;;;;;;;;6208461;28;20132;-72
2021/03/16 10:37:18;;;;;;;8.13;0.60;;;;;;;;;;6207584;28;20046;-72
2021/03/16 10:40:20;;;;;;;3.28;0.50;;;;;;;;;;6209531;28;20046;-73
2021/03/16 10:43:21;;;;;;;3.47;0.40;;;;;;;;;;6214125;28;20121;-72
2021/03/16 10:46:22;;;;;;;2.55;0.40;;;;;;;;;;6206755;28;20062;-72
2021/03/16 10:49:23;;;;;;;0.95;0.30;;;;;;;;;;6210123;28;20145;-70
2021/03/16 10:52:25;;;;;;;5.28;0.50;;;;;;;;;;6203864;28;20505;-70
2021/03/16 10:55:26;;;;;;;4.72;0.73;;;;;;;;;;6210485;28;20460;-73
2021/03/16 10:58:27;;;;;;;5.75;0.60;;;;;;;;;;6211184;28;20045;-73
2021/03/16 11:01:28;;;;;;;1.58;0.30;;;;;;;;;;6204286;28;20054;-70
2021/03/16 11:04:29;;;;;;;1.75;0.35;;;;;;;;;;6205649;28;20133;-70
2021/03/16 11:07:31;;;;;;;3.00;0.40;;;;;;;;;;6206286;28;20054;-71
2021/03/16 11:10:32;;;;;;;2.53;0.40;;;;;;;;;;6208257;28;20073;-75
2021/03/16 11:13:34;;;;;;;4.93;0.40;;;;;;;;;;6213097;28;20149;-70
2021/03/16 11:16:35;;;;;;;0.57;0.20;;;;;;;;;;6218690;28;20132;-72
2021/03/16 11:19:36;;;;;;;3.28;0.30;;;;;;;;;;6211198;28;20235;-74
2021/03/16 11:22:38;;;;;;;5.05;0.40;;;;;;;;;;6213645;28;20078;-71
2021/03/16 11:25:39;;;;;;;2.60;0.28;;;;;;;;;;6213443;28;20058;-72
2021/03/16 11:28:40;;;;;;;2.45;0.73;;;;;;;;;;6210375;28;20078;-70
2021/03/16 11:31:41;;;;;;;3.33;0.63;;;;;;;;;;6209422;28;20056;-73
2021/03/16 11:34:42;;;;;;;2.05;0.25;;;;;;;;;;6173120;28;20082;-73
2021/03/16 11:37:44;;;;;;;1.02;0.30;;;;;;;;;;6175584;28;20070;-71
2021/03/16 11:40:45;;;;;;;7.93;0.52;;;;;;;;;;6201224;28;20125;-73
2021/03/16 11:43:47;;;;;;;14.18;1.48;;;;;;;;;;6214180;28;20149;-71
2021/03/16 11:46:48;;;;;;;22.13;1.17;;;;;;;;;;6207708;28;20108;-75
2021/03/16 11:49:49;;;;;;;11.88;1.10;;;;;;;;;;6213491;28;20149;-71
2021/03/16 11:52:51;;;;;;;26.50;1.63;;;;;;;;;;6209558;28;20053;-72
2021/03/16 11:55:52;;;;;;;2.27;0.40;;;;;;;;;;6215838;28;20496;-71
2021/03/16 11:58:53;;;;;;;17.98;1.45;;;;;;;;;;6209228;28;20453;-71
2021/03/16 12:01:54;;;;;;;14.82;1.17;;;;;;;;;;6207476;28;20041;-71
2021/03/16 12:04:55;;;;;;;5.40;0.52;;;;;;;;;;6211656;28;20140;-78
2021/03/16 12:07:57;;;;;;;2.95;1.17;;;;;;;;;;6209947;28;20057;-70
2021/03/16 12:10:58;;;;;;;0.70;0.30;;;;;;;;;;6210591;28;20124;-71
2021/03/16 12:14:00;;;;;;;3.40;0.50;;;;;;;;;;6208303;28;20056;-75
2021/03/16 12:17:01;;;;;;;1.50;0.43;;;;;;;;;;6207668;28;20049;-72
2021/03/16 12:20:04;;;;;;;5.15;0.82;;;;;;;;;;6212815;28;20057;-79
2021/03/16 12:23:05;;;;;;;1.27;0.23;;;;;;;;;;6212150;28;20117;-69
2021/03/16 12:26:10;;;;;;;2.10;0.40;;;;;;;;;;6206665;28;20081;-72
2021/03/16 12:29:12;;;;;;;5.10;0.80;;;;;;;;;;6213309;28;20050;-71
2021/03/16 12:32:14;;;;;;;6.17;0.70;;;;;;;;;;6213324;28;20050;-75
2021/03/16 12:35:15;;;;;;;14.20;0.95;;;;;;;;;;6206530;28;20069;-71
2021/03/16 12:38:17;;;;;;;7.15;0.60;;;;;;;;;;6207806;28;20081;-71
2021/03/16 12:41:18;;;;;;;14.43;1.93;;;;;;;;;;6204438;28;20077;-74
2021/03/16 12:44:19;;;;;;;4.22;0.68;;;;;;;;;;6198648;28;20089;-72
2021/03/16 12:47:20;;;;;;;5.00;0.60;;;;;;;;;;6204398;28;20088;-73
2021/03/16 12:50:22;;;;;;;13.65;0.98;;;;;;;;;;6197931;28;20097;-73
2021/03/16 12:53:24;;;;;;;2.80;0.55;;;;;;;;;;6205423;28;20473;-73
2021/03/16 12:56:25;;;;;;;2.17;0.68;;;;;;;;;;6208922;28;20133;-71
2021/03/16 12:59:26;;;;;;;3.47;0.60;;;;;;;;;;6209688;28;20117;-71
2021/03/16 13:02:27;;;;;;;1.75;0.50;;;;;;;;;;6210139;28;20136;-74
2021/03/16 13:05:28;;;;;;;5.25;0.60;;;;;;;;;;6211368;28;20435;-76
2021/03/16 13:08:30;;;;;;;14.85;1.42;;;;;;;;;;6207728;28;20042;-73
2021/03/16 13:11:32;;;;;;;10.18;0.80;;;;;;;;;;6204982;28;20054;-71
2021/03/16 13:14:33;;;;;;;4.10;0.55;;;;;;;;;;6202892;28;20123;-73
2021/03/16 13:17:34;;;;;;;3.75;0.60;;;;;;;;;;6201781;28;20132;-74
2021/03/16 13:20:35;;;;;;;100.78;7.07;;;;;;;;;;6207958;28;20058;-74
2021/03/16 13:23:37;;;;;;;6.55;0.93;;;;;;;;;;6213276;28;20141;-75
2021/03/16 13:26:39;;;;;;;9.55;0.80;;;;;;;;;;6206560;28;20145;-73
2021/03/16 13:29:40;;;;;;;8.15;0.70;;;;;;;;;;6201953;28;20050;-73
2021/03/16 13:32:41;;;;;;;3.92;0.60;;;;;;;;;;6204316;28;20060;-74
2021/03/16 13:35:42;;;;;;;8.65;0.98;;;;;;;;;;6217075;28;20124;-70
2021/03/16 13:38:44;;;;;;;18.60;1.77;;;;;;;;;;6210873;28;20165;-73
2021/03/16 13:41:45;;;;;;;8.77;0.70;;;;;;;;;;6201460;28;20081;-75
2021/03/16 13:44:46;;;;;;;3.13;0.50;;;;;;;;;;6198116;28;20073;-73
2021/03/16 13:47:47;;;;;;;12.55;1.92;;;;;;;;;;6208790;28;20064;-72
2021/03/16 13:50:49;;;;;;;10.30;0.88;;;;;;;;;;6201206;28;20136;-72
2021/03/16 13:53:51;;;;;;;9.38;0.75;;;;;;;;;;6198816;28;20050;-72
2021/03/16 13:56:52;;;;;;;15.68;1.33;;;;;;;;;;6204137;28;20137;-72
2021/03/16 13:59:53;;;;;;;10.35;1.17;;;;;;;;;;6203601;28;20525;-71
2021/03/16 14:02:54;;;;;;;25.35;1.70;;;;;;;;;;6204461;28;20192;-71
2021/03/16 14:05:55;;;;;;;8.60;1.00;;;;;;;;;;6207851;28;20058;-73
2021/03/16 14:08:57;;;;;;;34.72;2.17;;;;;;;;;;6207588;28;20156;-72
2021/03/16 14:11:58;;;;;;;21.73;1.30;;;;;;;;;;6208780;28;20046;-76
2021/03/16 14:14:59;;;;;;;34.35;2.13;;;;;;;;;;6206568;28;20073;-74
2021/03/16 14:18:00;;;;;;;25.45;1.58;;;;;;;;;;6210400;28;20544;-70
2021/03/16 14:21:01;;;;;;;30.63;2.03;;;;;;;;;;6203120;28;20046;-73
2021/03/16 14:24:04;;;;;;;21.67;1.63;;;;;;;;;;6215281;28;20054;-74
2021/03/16 14:27:05;;;;;;;38.42;2.15;;;;;;;;;;6205606;28;20060;-71
2021/03/16 14:30:08;;;;;;;38.72;2.90;;;;;;;;;;6200952;28;20136;-71
2021/03/16 14:33:09;;;;;;;19.30;1.55;;;;;;;;;;6200211;28;20146;-71
2021/03/16 14:36:10;;;;;;;73.30;4.78;;;;;;;;;;6205277;28;20118;-73
2021/03/16 14:39:12;;;;;;;4.68;0.57;;;;;;;;;;6198988;28;20095;-73
2021/03/16 14:42:13;;;;;;;9.20;1.60;;;;;;;;;;6203023;28;20165;-72
2021/03/16 14:45:14;;;;;;;18.25;1.05;;;;;;;;;;6206567;28;20076;-72
2021/03/16 14:48:19;;;;;;;28.15;1.60;;;;;;;;;;6207614;28;20133;-73
2021/03/16 14:51:21;;;;;;;5.38;0.43;;;;;;;;;;6217367;28;20065;-72
2021/03/16 14:54:23;;;;;;;19.73;1.15;;;;;;;;;;6209444;28;20371;-71
2021/03/16 14:57:24;;;;;;;56.40;3.33;;;;;;;;;;6211379;28;20453;-72
2021/03/16 15:00:25;;;;;;;3.70;0.70;;;;;;;;;;6216583;28;20141;-72
2021/03/16 15:03:26;;;;;;;8.27;0.90;;;;;;;;;;6210343;28;20129;-71
2021/03/16 15:06:27;;;;;;;11.75;1.35;;;;;;;;;;6211251;28;20066;-72
2021/03/16 15:09:29;;;;;;;17.60;1.67;;;;;;;;;;6211503;28;20046;-72
2021/03/16 15:12:30;;;;;;;22.75;1.52;;;;;;;;;;6206561;28;20078;-73
2021/03/16 15:15:31;;;;;;;14.15;1.23;;;;;;;;;;6185911;28;20134;-75
2021/03/16 15:18:33;;;;;;;27.95;1.50;;;;;;;;;;6193220;28;20146;-72
2021/03/16 15:21:34;;;;;;;29.35;1.70;;;;;;;;;;6184383;28;20058;-73
2021/03/16 15:24:36;;;;;;;15.30;1.33;;;;;;;;;;6183192;28;20057;-72
2021/03/16 15:27:37;;;;;;;12.40;1.55;;;;;;;;;;6185963;28;20142;-72
2021/03/16 15:30:38;;;;;;;21.55;1.65;;;;;;;;;;6187393;28;20050;-75
2021/03/16 15:33:39;;;;;;;16.63;0.93;;;;;;;;;;6184966;28;20149;-72
2021/03/16 15:36:41;;;;;;;12.93;2.10;;;;;;;;;;6192229;28;20114;-73
2021/03/16 15:39:43;;;;;;;10.73;1.10;;;;;;;;;;6183482;28;20123;-73
2021/03/16 15:42:44;;;;;;;18.30;1.90;;;;;;;;;;6183376;28;20510;-73
2021/03/16 15:45:45;;;;;;;23.55;1.33;;;;;;;;;;6199437;28;20476;-72
2021/03/16 15:48:46;;;;;;;24.80;1.75;;;;;;;;;;6199173;28;20129;-73
2021/03/16 15:51:47;;;;;;;9.52;0.80;;;;;;;;;;6186846;28;20492;-73
2021/03/16 15:54:50;;;;;;;28.77;2.95;;;;;;;;;;6190594;28;20088;-72
2021/03/16 15:57:51;;;;;;;31.00;1.83;;;;;;;;;;6189663;28;20046;-73
2021/03/16 16:00:52;;;;;;;22.83;1.77;;;;;;;;;;6189517;28;20505;-75
2021/03/16 16:03:53;;;;;;;20.40;1.27;;;;;;;;;;6190303;28;20075;-73
2021/03/16 16:06:54;;;;;;;34.03;3.10;;;;;;;;;;6190332;28;20054;-73
2021/03/16 16:09:56;;;;;;;43.08;2.53;;;;;;;;;;6189918;28;20566;-74
2021/03/16 16:12:58;;;;;;;49.95;3.17;;;;;;;;;;6187644;28;20055;-73
2021/03/16 16:15:59;;;;;;;43.97;2.90;;;;;;;;;;6182955;28;20066;-73
2021/03/16 16:19:00;;;;;;;38.55;2.60;;;;;;;;;;6184770;28;20068;-77
2021/03/16 16:22:01;;;;;;;10.30;2.45;;;;;;;;;;6185515;28;20446;-72
2021/03/16 16:25:04;;;;;;;20.08;1.58;;;;;;;;;;6192000;28;20169;-72
2021/03/16 16:28:05;;;;;;;25.58;2.10;;;;;;;;;;6188527;28;20167;-72
2021/03/16 16:31:06;;;;;;;55.45;3.85;;;;;;;;;;6189570;28;20130;-72
2021/03/16 16:34:07;;;;;;;25.92;1.73;;;;;;;;;;6187611;28;20508;-72
2021/03/16 16:37:09;;;;;;;16.48;1.20;;;;;;;;;;6184928;28;20193;-72
2021/03/16 16:40:12;;;;;;;45.03;2.58;;;;;;;;;;6188032;28;20129;-73
2021/03/16 16:43:13;;;;;;;21.05;1.52;;;;;;;;;;6191055;28;20097;-78
2021/03/16 16:46:14;;;;;;;48.42;3.00;;;;;;;;;;6189082;28;20085;-74
2021/03/16 16:49:15;;;;;;;55.92;2.90;;;;;;;;;;6180674;28;20050;-71
2021/03/16 16:52:17;;;;;;;51.53;3.35;;;;;;;;;;6190407;28;20078;-71
2021/03/16 16:55:19;;;;;;;32.28;2.15;;;;;;;;;;6181971;28;20047;-72
2021/03/16 16:58:20;;;;;;;68.97;4.68;;;;;;;;;;6177121;28;20138;-72
2021/03/16 17:01:21;;;;;;;40.03;2.20;;;;;;;;;;6181910;28;20162;-73
2021/03/16 17:04:22;;;;;;;12.93;0.98;;;;;;;;;;6186076;28;20058;-72
2021/03/16 17:07:23;;;;;;;13.98;0.85;;;;;;;;;;6188221;28;20442;-72
2021/03/16 17:10:25;;;;;;;5.32;0.73;;;;;;;;;;6172789;28;20205;-73
2021/03/16 17:13:26;;;;;;;9.82;1.08;;;;;;;;;;6201622;28;20046;-72
2021/03/16 17:16:27;;;;;;;11.35;1.17;;;;;;;;;;6205027;28;20046;-73
2021/03/16 17:19:28;;;;;;;13.75;1.45;;;;;;;;;;6187904;28;20050;-71
2021/03/16 17:22:29;;;;;;;13.10;1.17;;;;;;;;;;6194420;28;20112;-75
2021/03/16 17:25:31;;;;;;;10.27;1.17;;;;;;;;;;6181786;28;20560;-71
2021/03/16 17:28:32;;;;;;;18.70;1.27;;;;;;;;;;6198426;28;20085;-76
2021/03/16 17:31:34;;;;;;;13.57;1.42;;;;;;;;;;6199959;28;21028;-73
2021/03/16 17:34:35;;;;;;;19.63;2.63;;;;;;;;;;6186434;28;20142;-78
2021/03/16 17:37:36;;;;;;;6.05;0.63;;;;;;;;;;6192984;28;20119;-71
2021/03/16 17:40:38;;;;;;;8.82;0.60;;;;;;;;;;6183486;28;20203;-72
2021/03/16 17:43:39;;;;;;;5.10;1.48;;;;;;;;;;6190412;28;20084;-71
2021/03/16 17:46:40;;;;;;;4.38;0.70;;;;;;;;;;6188198;28;20053;-71
2021/03/16 17:49:41;;;;;;;2.83;0.50;;;;;;;;;;6183648;28;20090;-72
2021/03/16 17:52:42;;;;;;;16.77;0.80;;;;;;;;;;6183529;28;20142;-74
2021/03/16 17:55:44;;;;;;;6.35;0.80;;;;;;;;;;6211281;28;20057;-71
2021/03/16 17:58:45;;;;;;;21.58;1.42;;;;;;;;;;6203354;28;20607;-72
2021/03/16 18:01:46;;;;;;;29.42;3.03;;;;;;;;;;6199318;28;20572;-71
2021/03/16 18:04:47;;;;;;;19.50;1.23;;;;;;;;;;6188165;28;20449;-73
2021/03/16 18:07:48;;;;;;;8.70;0.80;;;;;;;;;;6178689;28;20755;-71